Погода Баранькана неделю

Тверская область, Россия

24 - 30 мая
  • 24мая
    Сегодня
    +7°
    +22°
    Ясно и безоблачно
    ВремяПогодаТемператураВлажностьДавлениеВетер, м/сВероятность осадков
    00:00Ясно и безоблачно+12°C57 %754 мм2.9 м/с2 %
    03:00Ясно и безоблачно+9°C60 %755 мм2.6 м/с2 %
    06:00Ясно и безоблачно+10°C64 %756 мм2.3 м/с2 %
    09:00Ясно и безоблачно+17°C52 %757 мм2.0 м/с2 %
    12:00Ясно и безоблачно+20°C34 %756 мм3.9 м/с2 %
    15:00Ясно и безоблачно+22°C31 %756 мм3.7 м/с2 %
    18:00Ясно и безоблачно+22°C33 %755 мм3.2 м/с2 %
    21:00Ясно и безоблачно+17°C49 %755 мм2.8 м/с2 %
  • 25мая
    Суббота
    +8°
    +24°
    Ясно и безоблачно
    ВремяПогодаТемператураВлажностьДавлениеВетер, м/сВероятность осадков
    00:00Ясно и безоблачно+12°C55 %755 мм3.0 м/с2 %
    03:00Ясно и безоблачно+8°C65 %755 мм2.3 м/с2 %
    06:00Ясно и безоблачно+9°C68 %755 мм2.3 м/с2 %
    09:00Ясно и безоблачно+17°C52 %755 мм1.7 м/с2 %
    12:00Ясно и безоблачно+21°C37 %754 мм1.9 м/с2 %
    15:00Ясно и безоблачно+23°C33 %753 мм2.2 м/с2 %
    18:00Ясно и безоблачно+23°C36 %752 мм2.2 м/с2 %
    21:00Ясно и безоблачно+18°C66 %751 мм2.4 м/с2 %
  • 26мая
    Воскресенье
    +10°
    +25°
    Небольшая облачность
    ВремяПогодаТемператураВлажностьДавлениеВетер, м/сВероятность осадков
    00:00Ясно и безоблачно+11°C77 %751 мм2.1 м/с2 %
    03:00Ясно и безоблачно+11°C71 %751 мм0.4 м/с2 %
    06:00Ясно и безоблачно+10°C81 %751 мм1.2 м/с2 %
    09:00Ясно и безоблачно+21°C52 %751 мм0.9 м/с2 %
    12:00Облачно с прояснениями+24°C39 %751 мм1.4 м/с2 %
    15:00Небольшая облачность+25°C39 %751 мм2.3 м/с16 %
    18:00Практически безоблачно+22°C57 %751 мм2.1 м/с32 %
    21:00Ясно и безоблачно+18°C79 %751 мм1.6 м/с11 %
  • 27мая
    Понедельник
    +11°
    +24°
    Ясно и безоблачно
    ВремяПогодаТемператураВлажностьДавлениеВетер, м/сВероятность осадков
    00:00Ясно и безоблачно+15°C90 %751 мм2.7 м/с2 %
    03:00Ясно и безоблачно+12°C93 %752 мм2.9 м/с2 %
    06:00Ясно и безоблачно+11°C72 %753 мм2.7 м/с2 %
    09:00Ясно и безоблачно+19°C51 %753 мм2.2 м/с2 %
    12:00Ясно и безоблачно+22°C46 %753 мм2.4 м/с13 %
    15:00Ясно и безоблачно+23°C39 %752 мм1.9 м/с25 %
    18:00Практически безоблачно+23°C39 %751 мм1.1 м/с28 %
    21:00Ясно и безоблачно+19°C55 %751 мм2.7 м/с10 %
  • 28мая
    Вторник
    +11°
    +25°
    Небольшая облачность
    ВремяПогодаТемператураВлажностьДавлениеВетер, м/сВероятность осадков
    00:00Ясно и безоблачно+15°C62 %751 мм2.6 м/с2 %
    03:00Ясно и безоблачно+12°C81 %751 мм1.9 м/с2 %
    06:00Ясно и безоблачно+12°C86 %751 мм2.1 м/с4 %
    09:00Ясно и безоблачно+21°C68 %751 мм1.2 м/с3 %
    12:00Ясно и безоблачно+24°C43 %751 мм0.9 м/с17 %
    15:00Небольшая облачность+25°C37 %750 мм1.3 м/с27 %
    18:00Практически безоблачно+24°C40 %749 мм2.6 м/с24 %
    21:00Ясно и безоблачно+20°C64 %749 мм1.8 м/с4 %
Мы используем cookies
Соглашаюсь